Kezdőlap
METAR-TAF:

METAR-TAF

Repülőterek :

Bad Vöslau, Ausztria

földrajzi szélesség: 47-57-52N, földrajzi hosszúság: 016-15-34E, magasság: 233 m

Jelenlegi meteorológiai megfigyelések

A jelentés 10 órával és 33 perccel ezelõtt készült, 15:00 UTC
Észak-északnyugati szél 4 kt
Hőmérséklet 0°C
Páratartalom 86%
Légköri nyomás
Látótávolság: 3000 m
enyhe havazás, Párásság

METAR: LOAV 201500Z 34004KT 3000 -SN BR VV008 M00/M02

Idő: 02:33 (01:33 UTC)

Előrejelzés

A jelentés 14 órával és 8 perccel ezelõtt készült, 11:25 UTC
Az előrejelzés 20-én 12 óra UTC és 20-én 21 óra UTC között érvényes
Északi szél 5 kt
Látótávolság: 1500 m
Borult 1000 lábon
enyhe havazás, Párásság
20-én 12 óra UTC és 20-én 21 óra UTC között ideiglenes
Látótávolság: 0700 m
300 lábon

TAF: LOAV 201125Z 2012/2021 36005KT 1500 -SN BR OVC010 TEMPO 2012/2021 0700 SN VV003

Meteorológiai megfigyelések és előrejelzések több, mint 4000 repülőtéren (METAR és TAF jelentéseket).

A térképen piros és sárga pontok jelzik az elérhető meteorológiai állomásokat.

Mozgassa az egeret a pont fölött, hogy megjelenjen az állomás neve.

Azután kattintson az időjárási megfigyelések és előrejelzések megtekintéséhez.

A térkép megváltoztatása: kattintson a fekete keresztel jelölt zöld gombra ráközelítéshez, a vonallal jelölt zöld gombra távolításhoz, vagy a zöld nyilakra a szomszédos térképek eléréséhez.


METAR-TAF: